createdAt,value
2023-03-29T00:00:16.000Z,22.290322580645274
2023-03-29T00:02:59.000Z,22.290322580645274
2023-03-29T00:05:40.000Z,22.290322580645274
2023-03-29T00:08:18.000Z,22.290322580645274
2023-03-29T00:10:59.000Z,23.161290322580765
2023-03-29T00:13:42.000Z,23.548387096774317
2023-03-29T00:16:26.000Z,23.45161290322593
2023-03-29T00:19:07.000Z,20.935483870967843
2023-03-29T00:21:53.000Z,21.903225806451722
2023-03-29T00:24:35.000Z,21.12903225806462
2023-03-29T00:27:14.000Z,21.51612903225817
2023-03-29T00:29:55.000Z,22.580645161290438
2023-03-29T00:32:38.000Z,23.258064516129153
2023-03-29T00:35:19.000Z,23.161290322580765
2023-03-29T00:38:01.000Z,23.83870967741948
2023-03-29T00:40:42.000Z,24.129032258064644
2023-03-29T00:43:21.000Z,23.741935483871092
2023-03-29T00:46:03.000Z,24.032258064516256
2023-03-29T00:48:42.000Z,23.83870967741948
2023-03-29T00:51:26.000Z,24.032258064516256
2023-03-29T00:54:12.000Z,23.935483870967868
2023-03-29T00:56:53.000Z,23.548387096774317
2023-03-29T00:59:34.000Z,24.225806451613032
2023-03-29T01:02:14.000Z,24.419354838709808
2023-03-29T01:04:56.000Z,24.32258064516142
2023-03-29T01:07:38.000Z,23.935483870967868
2023-03-29T01:10:19.000Z,23.935483870967868
2023-03-29T01:13:04.000Z,23.161290322580765
2023-03-29T01:15:45.000Z,23.741935483871092
2023-03-29T01:18:26.000Z,24.225806451613032
2023-03-29T01:21:09.000Z,24.129032258064644
2023-03-29T01:23:52.000Z,23.741935483871092
2023-03-29T01:26:35.000Z,23.161290322580765
2023-03-29T01:29:18.000Z,23.35483870967754
2023-03-29T01:31:59.000Z,23.161290322580765
2023-03-29T01:34:42.000Z,22.290322580645274
2023-03-29T01:37:25.000Z,23.258064516129153
2023-03-29T01:40:06.000Z,22.96774193548399
2023-03-29T01:42:50.000Z,22.96774193548399
2023-03-29T01:45:30.000Z,22.774193548387213
2023-03-29T01:48:12.000Z,22.774193548387213
2023-03-29T01:50:55.000Z,23.064516129032377
2023-03-29T01:53:38.000Z,22.774193548387213
2023-03-29T01:56:20.000Z,22.580645161290438
2023-03-29T01:59:02.000Z,22.774193548387213
2023-03-29T02:01:44.000Z,22.677419354838825
2023-03-29T02:04:26.000Z,23.258064516129153
2023-03-29T02:07:07.000Z,22.774193548387213
2023-03-29T02:09:49.000Z,23.548387096774317
2023-03-29T02:12:30.000Z,23.258064516129153
2023-03-29T02:15:12.000Z,23.35483870967754
2023-03-29T02:17:54.000Z,23.45161290322593
2023-03-29T02:20:37.000Z,22.48387096774205
2023-03-29T02:23:18.000Z,22.48387096774205
2023-03-29T02:26:00.000Z,23.35483870967754
2023-03-29T02:28:45.000Z,23.258064516129153
2023-03-29T02:31:26.000Z,23.258064516129153
2023-03-29T02:34:07.000Z,22.48387096774205
2023-03-29T02:36:46.000Z,22.677419354838825
2023-03-29T02:39:28.000Z,22.96774193548399
2023-03-29T02:42:09.000Z,22.96774193548399
2023-03-29T02:44:51.000Z,22.96774193548399
2023-03-29T02:47:32.000Z,23.35483870967754
2023-03-29T02:50:14.000Z,23.35483870967754
2023-03-29T02:52:57.000Z,23.35483870967754
2023-03-29T02:55:42.000Z,22.96774193548399
2023-03-29T02:58:25.000Z,23.064516129032377
2023-03-29T03:01:07.000Z,23.645161290322704
2023-03-29T03:03:47.000Z,23.064516129032377
2023-03-29T03:06:37.000Z,22.96774193548399
2023-03-29T03:09:17.000Z,22.96774193548399
2023-03-29T03:11:59.000Z,22.8709677419356
2023-03-29T03:14:44.000Z,23.258064516129153
2023-03-29T03:17:26.000Z,22.96774193548399
2023-03-29T03:20:07.000Z,23.83870967741948
2023-03-29T03:22:47.000Z,23.741935483871092
2023-03-29T03:25:26.000Z,23.548387096774317
2023-03-29T03:28:06.000Z,23.45161290322593
2023-03-29T03:30:44.000Z,23.161290322580765
2023-03-29T03:33:26.000Z,23.548387096774317
2023-03-29T03:36:09.000Z,23.45161290322593
2023-03-29T03:38:52.000Z,23.35483870967754
2023-03-29T03:41:36.000Z,23.258064516129153
2023-03-29T03:44:19.000Z,23.161290322580765
2023-03-29T03:46:59.000Z,23.161290322580765
2023-03-29T03:49:43.000Z,23.161290322580765
2023-03-29T03:52:26.000Z,22.96774193548399
2023-03-29T03:55:10.000Z,22.8709677419356
2023-03-29T03:57:53.000Z,23.258064516129153
2023-03-29T04:00:33.000Z,22.580645161290438
2023-03-29T04:03:17.000Z,22.677419354838825
2023-03-29T04:05:57.000Z,22.580645161290438
2023-03-29T04:08:38.000Z,22.774193548387213
2023-03-29T04:11:26.000Z,22.580645161290438
2023-03-29T04:14:08.000Z,22.96774193548399
2023-03-29T04:16:51.000Z,22.96774193548399
2023-03-29T04:19:32.000Z,23.161290322580765
2023-03-29T04:22:12.000Z,22.8709677419356
2023-03-29T04:24:52.000Z,22.96774193548399
2023-03-29T04:27:33.000Z,23.064516129032377
2023-03-29T04:30:14.000Z,23.161290322580765
2023-03-29T04:32:57.000Z,22.8709677419356
2023-03-29T04:35:39.000Z,22.8709677419356
2023-03-29T04:38:24.000Z,23.161290322580765
2023-03-29T04:41:05.000Z,23.161290322580765
2023-03-29T04:43:44.000Z,22.96774193548399
2023-03-29T04:46:26.000Z,23.161290322580765
2023-03-29T04:49:07.000Z,22.96774193548399
2023-03-29T04:51:51.000Z,22.96774193548399
2023-03-29T04:54:35.000Z,23.064516129032377
2023-03-29T04:57:19.000Z,22.96774193548399
2023-03-29T05:00:01.000Z,23.45161290322593
2023-03-29T05:02:43.000Z,23.35483870967754
2023-03-29T05:05:29.000Z,23.548387096774317
2023-03-29T05:08:10.000Z,23.645161290322704
2023-03-29T05:10:51.000Z,23.548387096774317
2023-03-29T05:13:32.000Z,23.645161290322704
2023-03-29T05:16:14.000Z,23.548387096774317
2023-03-29T05:18:57.000Z,23.548387096774317
2023-03-29T05:21:38.000Z,23.35483870967754
2023-03-29T05:24:20.000Z,23.258064516129153
2023-03-29T05:27:03.000Z,23.258064516129153
2023-03-29T05:29:44.000Z,23.45161290322593
2023-03-29T05:32:27.000Z,23.45161290322593
2023-03-29T05:35:08.000Z,23.35483870967754
2023-03-29T05:37:49.000Z,23.161290322580765
2023-03-29T05:40:30.000Z,23.064516129032377
2023-03-29T05:43:10.000Z,23.161290322580765
2023-03-29T05:45:51.000Z,23.161290322580765
2023-03-29T05:48:33.000Z,22.8709677419356
2023-03-29T05:51:15.000Z,22.8709677419356
2023-03-29T05:54:01.000Z,22.96774193548399
2023-03-29T05:56:42.000Z,22.8709677419356
2023-03-29T05:59:22.000Z,23.161290322580765
2023-03-29T06:02:03.000Z,23.258064516129153
2023-03-29T06:04:41.000Z,22.96774193548399
2023-03-29T06:07:20.000Z,22.774193548387213
2023-03-29T06:10:01.000Z,22.8709677419356
2023-03-29T06:12:45.000Z,23.258064516129153
2023-03-29T06:15:28.000Z,22.774193548387213
2023-03-29T06:18:09.000Z,22.8709677419356
2023-03-29T06:20:51.000Z,22.774193548387213
2023-03-29T06:23:36.000Z,22.677419354838825
2023-03-29T06:26:16.000Z,22.774193548387213
2023-03-29T06:28:57.000Z,22.677419354838825
2023-03-29T06:31:37.000Z,22.8709677419356
2023-03-29T06:34:16.000Z,22.774193548387213
2023-03-29T06:36:57.000Z,22.774193548387213
2023-03-29T06:39:37.000Z,22.96774193548399
2023-03-29T06:42:18.000Z,23.548387096774317
2023-03-29T06:45:01.000Z,23.45161290322593
2023-03-29T06:47:42.000Z,23.548387096774317
2023-03-29T06:50:25.000Z,23.548387096774317
2023-03-29T06:53:05.000Z,23.35483870967754
2023-03-29T06:55:45.000Z,23.35483870967754
2023-03-29T06:58:27.000Z,23.35483870967754
2023-03-29T07:01:08.000Z,23.064516129032377
2023-03-29T07:03:52.000Z,22.96774193548399
2023-03-29T07:06:36.000Z,23.161290322580765
2023-03-29T07:09:18.000Z,23.064516129032377
2023-03-29T07:11:59.000Z,23.258064516129153
2023-03-29T07:14:40.000Z,23.064516129032377
2023-03-29T07:17:24.000Z,23.161290322580765
2023-03-29T07:20:07.000Z,23.161290322580765
2023-03-29T07:22:52.000Z,23.161290322580765
2023-03-29T07:25:35.000Z,23.161290322580765
2023-03-29T07:28:13.000Z,23.064516129032377
2023-03-29T07:30:55.000Z,23.161290322580765
2023-03-29T07:33:37.000Z,23.064516129032377
2023-03-29T07:36:17.000Z,22.96774193548399
2023-03-29T07:38:59.000Z,22.96774193548399
2023-03-29T07:41:42.000Z,22.677419354838825
2023-03-29T07:44:26.000Z,22.8709677419356
2023-03-29T07:47:08.000Z,22.8709677419356
2023-03-29T07:49:50.000Z,22.8709677419356
2023-03-29T07:52:32.000Z,22.8709677419356
2023-03-29T07:55:14.000Z,22.96774193548399
2023-03-29T07:57:54.000Z,22.96774193548399
2023-03-29T08:00:32.000Z,23.161290322580765
2023-03-29T08:03:16.000Z,23.161290322580765
2023-03-29T08:06:05.000Z,23.548387096774317
2023-03-29T08:08:49.000Z,23.741935483871092
2023-03-29T08:11:32.000Z,23.645161290322704
2023-03-29T08:14:16.000Z,23.548387096774317
2023-03-29T08:16:58.000Z,23.45161290322593
2023-03-29T08:19:41.000Z,23.645161290322704
2023-03-29T08:22:26.000Z,23.45161290322593
2023-03-29T08:25:10.000Z,23.35483870967754
2023-03-29T08:27:52.000Z,23.45161290322593
2023-03-29T08:30:45.000Z,23.35483870967754
2023-03-29T08:33:31.000Z,23.645161290322704
2023-03-29T08:36:16.000Z,23.645161290322704
2023-03-29T08:39:02.000Z,23.35483870967754
2023-03-29T08:41:41.000Z,23.258064516129153
2023-03-29T08:44:23.000Z,23.45161290322593
2023-03-29T08:47:09.000Z,23.35483870967754
2023-03-29T08:49:52.000Z,23.35483870967754
2023-03-29T08:52:37.000Z,23.45161290322593
2023-03-29T08:55:22.000Z,23.45161290322593
2023-03-29T08:58:03.000Z,23.45161290322593
2023-03-29T09:00:43.000Z,23.45161290322593
2023-03-29T09:03:25.000Z,23.45161290322593
2023-03-29T09:06:08.000Z,23.45161290322593
2023-03-29T09:08:52.000Z,23.548387096774317
2023-03-29T09:11:37.000Z,23.45161290322593
2023-03-29T09:14:19.000Z,23.548387096774317
2023-03-29T09:17:00.000Z,23.258064516129153
2023-03-29T09:19:41.000Z,23.45161290322593
2023-03-29T09:22:22.000Z,23.45161290322593
2023-03-29T09:25:02.000Z,23.35483870967754
2023-03-29T09:27:49.000Z,23.45161290322593
2023-03-29T09:30:31.000Z,23.35483870967754
2023-03-29T09:33:16.000Z,23.258064516129153
2023-03-29T09:36:00.000Z,23.258064516129153
2023-03-29T09:38:41.000Z,23.258064516129153
2023-03-29T09:41:22.000Z,23.645161290322704
2023-03-29T09:44:04.000Z,23.548387096774317
2023-03-29T09:46:49.000Z,23.548387096774317
2023-03-29T09:49:32.000Z,23.548387096774317
2023-03-29T09:52:14.000Z,23.645161290322704
2023-03-29T09:54:59.000Z,23.645161290322704
2023-03-29T09:57:42.000Z,23.548387096774317
2023-03-29T10:00:25.000Z,23.548387096774317
2023-03-29T10:03:08.000Z,23.45161290322593
2023-03-29T10:05:53.000Z,23.35483870967754
2023-03-29T10:08:36.000Z,23.45161290322593
2023-03-29T10:11:17.000Z,23.45161290322593
2023-03-29T10:14:00.000Z,23.35483870967754
2023-03-29T10:16:44.000Z,23.35483870967754
2023-03-29T10:19:29.000Z,23.45161290322593
2023-03-29T10:22:14.000Z,21.322580645161395
2023-03-29T10:24:57.000Z,21.225806451613007
2023-03-29T10:27:45.000Z,21.12903225806462
2023-03-29T10:30:33.000Z,21.12903225806462
2023-03-29T10:33:15.000Z,21.225806451613007
2023-03-29T10:35:58.000Z,21.12903225806462
2023-03-29T10:38:42.000Z,21.12903225806462
2023-03-29T10:41:23.000Z,21.12903225806462
2023-03-29T10:44:03.000Z,21.225806451613007
2023-03-29T10:46:43.000Z,21.12903225806462
2023-03-29T10:49:33.000Z,21.12903225806462
2023-03-29T10:52:16.000Z,21.12903225806462
2023-03-29T10:54:57.000Z,21.12903225806462
2023-03-29T10:57:40.000Z,20.935483870967843
2023-03-29T11:00:28.000Z,20.64516129032268
2023-03-29T11:03:10.000Z,20.741935483871067
2023-03-29T11:05:52.000Z,20.741935483871067
2023-03-29T11:08:33.000Z,20.354838709677516
2023-03-29T11:11:17.000Z,20.838709677419455
2023-03-29T11:14:02.000Z,20.838709677419455
2023-03-29T11:16:42.000Z,20.741935483871067
2023-03-29T11:19:22.000Z,20.741935483871067
2023-03-29T11:22:03.000Z,20.935483870967843
2023-03-29T11:24:42.000Z,20.64516129032268
2023-03-29T11:27:21.000Z,20.64516129032268
2023-03-29T11:30:05.000Z,20.354838709677516
2023-03-29T11:32:42.000Z,20.741935483871067
2023-03-29T11:35:25.000Z,20.838709677419455
2023-03-29T11:38:08.000Z,20.838709677419455
2023-03-29T11:40:55.000Z,21.225806451613007
2023-03-29T11:43:37.000Z,21.322580645161395
2023-03-29T11:46:19.000Z,21.12903225806462
2023-03-29T11:49:01.000Z,21.12903225806462
2023-03-29T11:51:44.000Z,21.225806451613007
2023-03-29T11:54:30.000Z,21.03225806451623
2023-03-29T11:57:11.000Z,21.03225806451623
2023-03-29T11:59:52.000Z,21.03225806451623
2023-03-29T12:02:36.000Z,20.838709677419455
2023-03-29T12:05:19.000Z,20.838709677419455
2023-03-29T12:08:02.000Z,20.838709677419455
2023-03-29T12:10:44.000Z,20.935483870967843
2023-03-29T12:13:31.000Z,21.12903225806462
2023-03-29T12:16:15.000Z,21.322580645161395
2023-03-29T12:18:59.000Z,5.8387096774193505
2023-03-29T12:21:43.000Z,5.9354838709677376
2023-03-29T12:24:26.000Z,5.9354838709677376
2023-03-29T12:27:07.000Z,5.8387096774193505
2023-03-29T12:29:45.000Z,5.7419354838709635
2023-03-29T12:32:25.000Z,5.9354838709677376
2023-03-29T12:35:07.000Z,5.8387096774193505
2023-03-29T12:37:47.000Z,5.8387096774193505
2023-03-29T12:40:28.000Z,5.8387096774193505
2023-03-29T12:43:11.000Z,5.8387096774193505
2023-03-29T12:45:54.000Z,5.9354838709677376
2023-03-29T12:48:37.000Z,5.9354838709677376
2023-03-29T12:51:21.000Z,5.8387096774193505
2023-03-29T12:54:03.000Z,5.8387096774193505
2023-03-29T12:56:44.000Z,5.9354838709677376
2023-03-29T12:59:26.000Z,5.9354838709677376
2023-03-29T13:02:07.000Z,5.8387096774193505
2023-03-29T13:04:57.000Z,5.8387096774193505
2023-03-29T13:07:39.000Z,5.9354838709677376
2023-03-29T13:10:21.000Z,5.8387096774193505
2023-03-29T13:13:03.000Z,5.8387096774193505
2023-03-29T13:15:44.000Z,5.7419354838709635
2023-03-29T13:18:29.000Z,5.9354838709677376
2023-03-29T13:21:14.000Z,5.7419354838709635
2023-03-29T13:23:55.000Z,5.8387096774193505
2023-03-29T13:26:38.000Z,5.9354838709677376
2023-03-29T13:29:20.000Z,5.9354838709677376
2023-03-29T13:32:03.000Z,5.8387096774193505
2023-03-29T13:34:46.000Z,5.9354838709677376
2023-03-29T13:37:32.000Z,5.8387096774193505
2023-03-29T13:40:21.000Z,5.8387096774193505
2023-03-29T13:43:16.000Z,5.7419354838709635
2023-03-29T13:46:04.000Z,5.7419354838709635
2023-03-29T13:48:45.000Z,5.8387096774193505
2023-03-29T13:51:30.000Z,5.8387096774193505
2023-03-29T13:54:15.000Z,5.7419354838709635
2023-03-29T13:56:58.000Z,5.8387096774193505
2023-03-29T13:59:42.000Z,5.9354838709677376
2023-03-29T14:02:29.000Z,5.9354838709677376
2023-03-29T14:05:11.000Z,5.8387096774193505
2023-03-29T14:07:57.000Z,5.8387096774193505
2023-03-29T14:10:43.000Z,5.8387096774193505
2023-03-29T14:13:32.000Z,5.8387096774193505
2023-03-29T14:16:17.000Z,5.8387096774193505
2023-03-29T14:19:00.000Z,5.8387096774193505
2023-03-29T14:21:43.000Z,5.8387096774193505
2023-03-29T14:24:27.000Z,5.8387096774193505
2023-03-29T14:27:10.000Z,5.9354838709677376
2023-03-29T14:30:04.000Z,5.8387096774193505
2023-03-29T14:32:45.000Z,5.9354838709677376
2023-03-29T14:35:29.000Z,5.8387096774193505
2023-03-29T14:38:20.000Z,5.8387096774193505
2023-03-29T14:41:11.000Z,5.7419354838709635
2023-03-29T14:43:54.000Z,5.8387096774193505
2023-03-29T14:46:37.000Z,5.8387096774193505
2023-03-29T14:49:20.000Z,5.8387096774193505
2023-03-29T14:52:04.000Z,5.9354838709677376
2023-03-29T14:54:48.000Z,5.8387096774193505
2023-03-29T14:57:33.000Z,5.8387096774193505
2023-03-29T15:00:16.000Z,5.8387096774193505
2023-03-29T15:03:01.000Z,5.8387096774193505
2023-03-29T15:05:46.000Z,5.8387096774193505
2023-03-29T15:08:44.000Z,5.8387096774193505
2023-03-29T15:11:28.000Z,5.8387096774193505
2023-03-29T15:14:11.000Z,5.9354838709677376
2023-03-29T15:16:57.000Z,5.8387096774193505
2023-03-29T15:19:42.000Z,5.8387096774193505
2023-03-29T15:22:28.000Z,5.8387096774193505
2023-03-29T15:25:11.000Z,5.8387096774193505
2023-03-29T15:27:56.000Z,5.8387096774193505
2023-03-29T15:30:43.000Z,5.8387096774193505
2023-03-29T15:33:25.000Z,5.9354838709677376
2023-03-29T15:36:10.000Z,5.8387096774193505
2023-03-29T15:38:57.000Z,5.8387096774193505
2023-03-29T15:41:39.000Z,5.8387096774193505
2023-03-29T15:44:22.000Z,5.9354838709677376
2023-03-29T15:47:13.000Z,5.9354838709677376
2023-03-29T15:50:19.000Z,6.032258064516125
2023-03-29T15:53:08.000Z,5.9354838709677376
2023-03-29T15:56:40.000Z,5.9354838709677376
2023-03-29T15:59:21.000Z,5.8387096774193505
2023-03-29T16:02:03.000Z,5.9354838709677376
2023-03-29T16:04:44.000Z,5.9354838709677376
2023-03-29T16:07:28.000Z,5.9354838709677376
2023-03-29T16:10:22.000Z,5.9354838709677376
2023-03-29T16:13:08.000Z,5.9354838709677376
2023-03-29T16:15:55.000Z,6.032258064516125
2023-03-29T16:18:41.000Z,6.032258064516125
2023-03-29T16:21:26.000Z,6.032258064516125
2023-03-29T16:24:09.000Z,5.9354838709677376
2023-03-29T16:26:54.000Z,5.9354838709677376
2023-03-29T16:29:37.000Z,5.9354838709677376
2023-03-29T16:32:22.000Z,6.032258064516125
2023-03-29T16:35:09.000Z,6.032258064516125
2023-03-29T16:37:58.000Z,6.225806451612899
2023-03-29T16:40:41.000Z,6.225806451612899
2023-03-29T16:43:23.000Z,6.129032258064512
2023-03-29T16:46:16.000Z,6.225806451612899
2023-03-29T16:49:00.000Z,6.129032258064512
2023-03-29T16:51:49.000Z,6.225806451612899
2023-03-29T16:54:38.000Z,6.129032258064512
2023-03-29T16:57:23.000Z,6.129032258064512
2023-03-29T17:00:18.000Z,6.225806451612899
2023-03-29T17:03:02.000Z,6.129032258064512
2023-03-29T17:05:47.000Z,6.129032258064512
2023-03-29T17:08:30.000Z,6.129032258064512
2023-03-29T17:11:12.000Z,6.225806451612899
2023-03-29T17:14:07.000Z,6.129032258064512
2023-03-29T17:16:52.000Z,6.032258064516125
2023-03-29T17:19:40.000Z,6.129032258064512
2023-03-29T17:22:31.000Z,6.225806451612899
2023-03-29T17:25:13.000Z,6.225806451612899
2023-03-29T17:27:57.000Z,6.225806451612899
2023-03-29T17:30:44.000Z,6.129032258064512
2023-03-29T17:33:26.000Z,6.129032258064512
2023-03-29T17:36:17.000Z,6.225806451612899
2023-03-29T17:39:01.000Z,6.225806451612899
2023-03-29T17:41:43.000Z,6.903225806451608
2023-03-29T17:44:28.000Z,6.999999999999995
2023-03-29T17:47:12.000Z,7.096774193548382
2023-03-29T17:49:55.000Z,7.48387096774193
2023-03-29T17:52:38.000Z,8.16129032258064
2023-03-29T17:55:33.000Z,8.838709677419356
2023-03-29T17:58:21.000Z,9.709677419354847
2023-03-29T18:01:11.000Z,25.774193548387238
2023-03-29T18:04:01.000Z,21.61290322580656
2023-03-29T18:06:53.000Z,20.935483870967843
2023-03-29T18:09:45.000Z,19.483870967742025
2023-03-29T18:12:37.000Z,20.741935483871067
2023-03-29T18:15:20.000Z,21.806451612903334
2023-03-29T18:18:04.000Z,22.193548387096886
2023-03-29T18:21:02.000Z,22.193548387096886
2023-03-29T18:23:46.000Z,22.38709677419366
2023-03-29T18:26:28.000Z,22.290322580645274
2023-03-29T18:29:10.000Z,21.806451612903334
2023-03-29T18:32:04.000Z,20.741935483871067
2023-03-29T18:34:44.000Z,21.322580645161395
2023-03-29T18:37:27.000Z,21.419354838709783
2023-03-29T18:40:17.000Z,20.741935483871067
2023-03-29T18:42:59.000Z,22.96774193548399
2023-03-29T18:45:41.000Z,23.548387096774317
2023-03-29T18:48:28.000Z,22.96774193548399
2023-03-29T18:51:14.000Z,22.8709677419356
2023-03-29T18:53:59.000Z,24.516129032258196
2023-03-29T18:56:44.000Z,24.419354838709808
2023-03-29T18:59:26.000Z,23.161290322580765
2023-03-29T19:02:07.000Z,23.064516129032377
2023-03-29T19:04:53.000Z,23.45161290322593
2023-03-29T19:07:38.000Z,23.645161290322704
2023-03-29T19:10:21.000Z,24.129032258064644
2023-03-29T19:13:03.000Z,23.83870967741948
2023-03-29T19:15:50.000Z,24.70967741935497
2023-03-29T19:19:29.000Z,25.774193548387238
2023-03-29T19:22:17.000Z,25.870967741935626
2023-03-29T19:25:06.000Z,25.967741935484014
2023-03-29T19:27:51.000Z,25.774193548387238
2023-03-29T19:30:42.000Z,25.387096774193687
2023-03-29T19:33:24.000Z,25.2903225806453
2023-03-29T19:36:08.000Z,25.774193548387238
2023-03-29T19:38:54.000Z,25.774193548387238
2023-03-29T19:41:37.000Z,25.483870967742074
2023-03-29T19:44:35.000Z,25.774193548387238
2023-03-29T19:47:29.000Z,25.774193548387238
2023-03-29T19:50:16.000Z,25.870967741935626
2023-03-29T19:53:01.000Z,25.67741935483885
2023-03-29T19:55:44.000Z,25.967741935484014
2023-03-29T19:58:30.000Z,25.483870967742074
2023-03-29T20:01:19.000Z,23.645161290322704
2023-03-29T20:04:04.000Z,24.612903225806583
2023-03-29T20:06:48.000Z,22.193548387096886
2023-03-29T20:09:32.000Z,25.67741935483885
2023-03-29T20:12:20.000Z,25.870967741935626
2023-03-29T20:15:02.000Z,26.16129032258079
2023-03-29T20:17:43.000Z,26.64516129032273
2023-03-29T20:20:31.000Z,26.741935483871117
2023-03-29T20:23:16.000Z,7.193548387096769
2023-03-29T20:25:58.000Z,6.612903225806447
2023-03-29T20:28:42.000Z,6.709677419354834
2023-03-29T20:31:32.000Z,6.806451612903221
2023-03-29T20:34:17.000Z,6.903225806451608
2023-03-29T20:37:05.000Z,6.903225806451608
2023-03-29T20:39:45.000Z,6.903225806451608
2023-03-29T20:42:27.000Z,6.903225806451608
2023-03-29T20:45:09.000Z,6.903225806451608
2023-03-29T20:47:57.000Z,6.903225806451608
2023-03-29T20:50:39.000Z,6.903225806451608
2023-03-29T20:53:20.000Z,6.903225806451608
2023-03-29T20:56:10.000Z,6.903225806451608
2023-03-29T20:58:53.000Z,6.903225806451608
2023-03-29T21:01:39.000Z,6.903225806451608
2023-03-29T21:04:23.000Z,6.903225806451608
2023-03-29T21:07:18.000Z,6.903225806451608
2023-03-29T21:10:01.000Z,6.903225806451608
2023-03-29T21:12:50.000Z,6.903225806451608
2023-03-29T21:15:36.000Z,6.903225806451608
2023-03-29T21:18:19.000Z,6.903225806451608
2023-03-29T21:21:04.000Z,6.903225806451608
2023-03-29T21:23:54.000Z,6.903225806451608
2023-03-29T21:26:38.000Z,6.903225806451608
2023-03-29T21:29:25.000Z,6.903225806451608
2023-03-29T21:32:07.000Z,6.903225806451608
2023-03-29T21:34:53.000Z,6.903225806451608
2023-03-29T21:37:38.000Z,6.806451612903221
2023-03-29T21:40:20.000Z,6.806451612903221
2023-03-29T21:43:11.000Z,6.903225806451608
2023-03-29T21:45:54.000Z,6.806451612903221
2023-03-29T21:48:44.000Z,6.903225806451608
2023-03-29T21:51:27.000Z,6.903225806451608
2023-03-29T21:54:10.000Z,6.903225806451608
2023-03-29T21:56:57.000Z,6.806451612903221
2023-03-29T21:59:40.000Z,6.806451612903221
2023-03-29T22:02:22.000Z,6.806451612903221
2023-03-29T22:05:06.000Z,6.806451612903221
2023-03-29T22:07:53.000Z,6.806451612903221
2023-03-29T22:10:35.000Z,6.806451612903221
2023-03-29T22:13:17.000Z,6.806451612903221
2023-03-29T22:16:02.000Z,6.806451612903221
2023-03-29T22:18:52.000Z,6.806451612903221
2023-03-29T22:21:37.000Z,6.806451612903221
2023-03-29T22:24:21.000Z,6.806451612903221
2023-03-29T22:27:10.000Z,6.806451612903221
2023-03-29T22:29:55.000Z,6.806451612903221
2023-03-29T22:32:39.000Z,6.806451612903221
2023-03-29T22:35:19.000Z,6.806451612903221
2023-03-29T22:38:05.000Z,6.806451612903221
2023-03-29T22:40:47.000Z,6.806451612903221
2023-03-29T22:43:33.000Z,6.806451612903221
2023-03-29T22:46:17.000Z,6.806451612903221
2023-03-29T22:49:05.000Z,6.806451612903221
2023-03-29T22:51:48.000Z,6.806451612903221
2023-03-29T22:54:31.000Z,6.806451612903221
2023-03-29T22:57:19.000Z,6.806451612903221
2023-03-29T23:00:07.000Z,6.806451612903221
2023-03-29T23:02:48.000Z,6.806451612903221
2023-03-29T23:05:32.000Z,6.709677419354834
2023-03-29T23:08:15.000Z,6.806451612903221
2023-03-29T23:11:02.000Z,6.806451612903221
2023-03-29T23:13:43.000Z,6.806451612903221
2023-03-29T23:16:26.000Z,6.806451612903221
2023-03-29T23:19:10.000Z,6.709677419354834
2023-03-29T23:21:56.000Z,6.709677419354834
2023-03-29T23:24:38.000Z,6.129032258064512
2023-03-29T23:27:29.000Z,6.129032258064512
2023-03-29T23:30:11.000Z,6.129032258064512
2023-03-29T23:32:54.000Z,6.129032258064512
2023-03-29T23:35:41.000Z,6.032258064516125
2023-03-29T23:38:26.000Z,6.032258064516125
2023-03-29T23:41:09.000Z,5.9354838709677376
2023-03-29T23:44:00.000Z,5.9354838709677376
2023-03-29T23:46:44.000Z,5.9354838709677376
2023-03-29T23:49:32.000Z,5.9354838709677376
2023-03-29T23:52:16.000Z,5.9354838709677376
2023-03-29T23:55:02.000Z,5.9354838709677376
2023-03-29T23:57:46.000Z,5.8387096774193505
